Leeds, Maine
Current Conditions -  °F | °C
As of 4:53 AM on Sunday 21 Dec 2014 (Local Time) from KAUG Reporting Station
Overcast Overcast  
Wind Chill: 13°   Ceiling: 900
Heat Index: 21°   Visibility: 10mi
Dew Point: 18°   Wind: 6mph
Humidity: 88%   Direction: 350°N
Pressure: 30.33"   Gusts: NA
Location:  44.35°N, 70.12°W
Report Text: KAUG 210953Z AUTO 35005KT 10SM OVC009 M06/M08 A3033 RMK AO2 SLP278 T10611078
Loading
Personal Weather Stations






























Interactive Weather Map New forecast layout! Learn more

10-Day Weather Forecast

Advertisements
Track Severe Weather on mobile